Meldorf - Wetter, 4m . NN
Wetterdaten: aktuell Donnerstag, 25.04.2019 19:00
Datum Zeit Auentemp. Bodentemp. Feuchte A. Bodenfeuchte Luftdruck Regen Wind Richtung Richtung Sonnenschein Solar Windchill Windben Empfang
25.04.2019 19:00 22,4 C 15,6 C 40 % 200 cb 1008,1 hPa 0,0 mm 5,1 km/h (1 Bft) W-SW 249 60 min 207 W/m 22,4 C 11,3 km/h (2 Bft) 99 %
25.04.2019 18:00 21,8 C 15,0 C 44 % 200 cb 1008,1 hPa 0,0 mm 7,8 km/h (2 Bft) W-SW 248 40 min 355 W/m 21,8 C 16,1 km/h (3 Bft) 97 %
25.04.2019 17:00 21,9 C 15,0 C 45 % 200 cb 1008,3 hPa 0,0 mm 11,1 km/h (2 Bft) W-SW 252 60 min 483 W/m 21,9 C 22,5 km/h (4 Bft) 99 %
25.04.2019 16:00 20,4 C 14,4 C 49 % 200 cb 1008,3 hPa 0,0 mm 10,8 km/h (2 Bft) W-NW 290 50 min 288 W/m 20,4 C 22,5 km/h (4 Bft) 97 %
25.04.2019 15:00 20,8 C 14,4 C 48 % 200 cb 1008,6 hPa 0,0 mm 11,7 km/h (2 Bft) W 268 60 min 450 W/m 20,8 C 24,1 km/h (4 Bft) 96 %
25.04.2019 14:00 21,0 C 13,9 C 46 % 200 cb 1008,6 hPa 0,0 mm 9,0 km/h (2 Bft) W 271 50 min 821 W/m 21,0 C 24,1 km/h (4 Bft) 99 %
25.04.2019 13:00 19,9 C 13,3 C 49 % 200 cb 1008,5 hPa 0,0 mm 7,0 km/h (2 Bft) W-SW 253 60 min 448 W/m 19,9 C 17,7 km/h (3 Bft) 97 %
25.04.2019 12:00 19,5 C 12,2 C 54 % 200 cb 1008,7 hPa 0,0 mm 5,7 km/h (2 Bft) W 268 60 min 706 W/m 19,5 C 16,1 km/h (3 Bft) 96 %
25.04.2019 11:00 17,8 C 12,2 C 58 % 200 cb 1009,0 hPa 0,2 mm 6,8 km/h (2 Bft) S 182 60 min 581 W/m 17,8 C 17,7 km/h (3 Bft) 98 %
25.04.2019 10:00 15,3 C 12,2 C 69 % 200 cb 1008,9 hPa 0,0 mm 5,1 km/h (1 Bft) S 173 60 min 485 W/m 15,3 C 11,3 km/h (2 Bft) 94 %
25.04.2019 09:00 13,3 C 12,2 C 82 % 200 cb 1008,6 hPa 0,0 mm 6,3 km/h (2 Bft) W 268 60 min 344 W/m 13,3 C 17,7 km/h (3 Bft) 100 %
25.04.2019 08:00 11,6 C 12,8 C 94 % 200 cb 1008,0 hPa 0,0 mm 5,4 km/h (2 Bft) W 271 0 min 139 W/m 11,6 C 12,9 km/h (3 Bft) 97 %
25.04.2019 07:00 10,8 C 12,8 C 93 % 200 cb 1007,1 hPa 0,0 mm 1,7 km/h (1 Bft) W-SW 257 0 min 18 W/m 10,8 C 4,8 km/h (1 Bft) 98 %
25.04.2019 06:00 11,6 C 12,8 C 93 % 200 cb 1006,4 hPa 0,0 mm 1,1 km/h (1 Bft) W 273 0 min 0 W/m 11,6 C 4,8 km/h (1 Bft) 98 %
25.04.2019 04:40 12,7 C 13,3 C 92 % 200 cb 1005,8 hPa 0,4 mm 9,7 km/h (2 Bft) W 270 0 min 0 W/m 12,7 C 22,5 km/h (4 Bft) 99 %
25.04.2019 03:40 13,6 C 13,3 C 87 % 200 cb 1004,5 hPa 0,0 mm 0,0 km/h (0 Bft) W-NW 292 0 min 0 W/m 13,6 C 3,2 km/h (1 Bft) 99 %
25.04.2019 02:40 14,1 C 13,3 C 80 % 200 cb 1005,0 hPa 0,0 mm 6,4 km/h (2 Bft) W-NW 292 0 min 0 W/m 14,1 C 16,1 km/h (3 Bft) 98 %
25.04.2019 01:40 16,8 C 13,3 C 62 % 200 cb 1003,0 hPa 0,0 mm 4,8 km/h (1 Bft) SW 225 0 min 0 W/m 16,8 C 16,1 km/h (3 Bft) 100 %
25.04.2019 00:40 17,7 C 13,9 C 58 % 200 cb 1001,7 hPa 0,0 mm 11,3 km/h (2 Bft) S 180 0 min 0 W/m 17,7 C 25,7 km/h (4 Bft) 98 %
24.04.2019 23:40 18,0 C 13,9 C 57 % 200 cb 1002,1 hPa 0,0 mm 9,7 km/h (2 Bft) S 180 0 min 0 W/m 18,0 C 20,9 km/h (4 Bft) 100 %
24.04.2019 22:40 18,9 C 14,4 C 56 % 200 cb 1002,6 hPa 0,0 mm 9,7 km/h (2 Bft) S 180 0 min 0 W/m 18,9 C 22,5 km/h (4 Bft) 100 %
24.04.2019 21:40 19,6 C 14,4 C 54 % 200 cb 1003,0 hPa 0,0 mm 8,0 km/h (2 Bft) S 180 0 min 0 W/m 19,6 C 17,7 km/h (3 Bft) 99 %
24.04.2019 20:40 20,8 C 15,0 C 51 % 200 cb 1002,2 hPa 0,0 mm 9,7 km/h (2 Bft) S 180 0 min 2 W/m 20,8 C 20,9 km/h (4 Bft) 100 %
24.04.2019 20:00 21,9 C 15,0 C 49 % 200 cb 1002,3 hPa 0,0 mm 9,7 km/h (2 Bft) S 180 0 min 30 W/m 21,9 C 24,1 km/h (4 Bft) 100 %
_ Min-Zeit 07:20 12:00 18:40 19:00 00:50 - 03:50 - - - - 07:20 03:50 04:50
Minimum _ 10,7 C 12,2 C 39 % 200 cb 1001,6 hPa - 0,0 km/h (0 Bft) - - - - 10,7 C 0,0 km/h (0 Bft) 86 %
_ Max-Zeit 18:30 19:00 08:00 19:00 10:10 10:40 02:00 - - 19:00 14:00 18:20 14:40 13:50
Maximum _ 22,6 C 15,6 C 94 % 200 cb 1009,1 hPa 0,2 mm 14,5 km/h
W (3 Bft)
- - 10 min 821 W/m 22,5 C 29,0 km/h
W-SW (5 Bft)
100 %
Durchschnitt _ 17,7 C 13,7 C 63 % 200 cb 1006,0 hPa #0,6 mm 7,7 km/h (2 Bft) W - #10:20 h 419 W/m 17,7 C 18,3 km/h (3 Bft) 98 %